YFC83 WSSL-WSSL
Flight info
| Callsign | YFC83 |
|---|---|
| Flight time | N/A |
| Altitude | 5000 |
| Route | CCTS/LATA |
| Aircraft | DA40/L-SDE1FGHILORVWXY/LB1D1 |
Departure
| Time | 2026-05-07 11:30 |
|---|---|
| Airport | Seletar Airport (WSSL) |
Arrival
| Time | N/A |
|---|---|
| Airport | Seletar Airport (WSSL) |
| Time | Latitude | Longitude | Altitude | Speed | Heading |
|---|---|---|---|---|---|
| 2026-05-07 11:21 | 1.41453 | 103.86395 | 49 ft | 0 kts | 149° |
| 2026-05-07 11:22 | 1.41452 | 103.86396 | 49 ft | 3 kts | 148° |
| 2026-05-07 11:23 | 1.41444 | 103.86421 | 49 ft | 9 kts | 29° |
| 2026-05-07 11:23 | 1.41509 | 103.86474 | 49 ft | 8 kts | 33° |
| 2026-05-07 11:23 | 1.41523 | 103.86483 | 49 ft | 0 kts | 3° |
| 2026-05-07 11:24 | 1.41530 | 103.86487 | 49 ft | 7 kts | 37° |
| 2026-05-07 11:24 | 1.41578 | 103.86512 | 49 ft | 11 kts | 352° |
| 2026-05-07 11:24 | 1.41630 | 103.86533 | 49 ft | 9 kts | 33° |
| 2026-05-07 11:25 | 1.41688 | 103.86570 | 49 ft | 10 kts | 33° |
| 2026-05-07 11:25 | 1.41762 | 103.86619 | 49 ft | 15 kts | 32° |
| 2026-05-07 11:25 | 1.41854 | 103.86679 | 49 ft | 15 kts | 34° |
| 2026-05-07 11:25 | 1.41947 | 103.86740 | 49 ft | 16 kts | 32° |
| 2026-05-07 11:26 | 1.42037 | 103.86798 | 49 ft | 14 kts | 33° |
| 2026-05-07 11:26 | 1.42105 | 103.86844 | 49 ft | 17 kts | 32° |
| 2026-05-07 11:26 | 1.42197 | 103.86903 | 49 ft | 20 kts | 32° |
| 2026-05-07 11:26 | 1.42304 | 103.86973 | 49 ft | 11 kts | 48° |
| 2026-05-07 11:27 | 1.42306 | 103.87009 | 49 ft | 4 kts | 122° |
| 2026-05-07 11:27 | 1.42290 | 103.87033 | 49 ft | 0 kts | 123° |
| 2026-05-07 11:28 | 1.42286 | 103.87040 | 49 ft | 7 kts | 122° |
| 2026-05-07 11:28 | 1.42250 | 103.87095 | 49 ft | 9 kts | 133° |
| 2026-05-07 11:28 | 1.42213 | 103.87103 | 49 ft | 5 kts | 214° |
| 2026-05-07 11:28 | 1.42185 | 103.87084 | 49 ft | 16 kts | 210° |
| 2026-05-07 11:29 | 1.41953 | 103.86934 | 48 ft | 65 kts | 213° |
| 2026-05-07 11:29 | 1.41524 | 103.86645 | 191 ft | 78 kts | 213° |
| 2026-05-07 11:29 | 1.41066 | 103.86300 | 320 ft | 89 kts | 211° |
| 2026-05-07 11:29 | 1.40559 | 103.85971 | 536 ft | 85 kts | 208° |
| 2026-05-07 11:30 | 1.40079 | 103.85640 | 792 ft | 84 kts | 219° |
| 2026-05-07 11:30 | 1.39805 | 103.85086 | 924 ft | 97 kts | 258° |
| 2026-05-07 11:30 | 1.39905 | 103.84410 | 1127 ft | 96 kts | 288° |
| 2026-05-07 11:30 | 1.40265 | 103.83862 | 1331 ft | 96 kts | 346° |
| 2026-05-07 11:31 | 1.40855 | 103.84016 | 1444 ft | 96 kts | 31° |
| 2026-05-07 11:31 | 1.41456 | 103.84339 | 1629 ft | 99 kts | 29° |
| 2026-05-07 11:31 | 1.42067 | 103.84643 | 1886 ft | 98 kts | 27° |
| 2026-05-07 11:31 | 1.42703 | 103.84962 | 2061 ft | 108 kts | 34° |
| 2026-05-07 11:32 | 1.43263 | 103.85954 | 2594 ft | 91 kts | 128° |
| 2026-05-07 11:32 | 1.42848 | 103.86435 | 2796 ft | 89 kts | 134° |
| 2026-05-07 11:32 | 1.42430 | 103.86868 | 2990 ft | 89 kts | 137° |
| 2026-05-07 11:33 | 1.41924 | 103.87219 | 3188 ft | 89 kts | 162° |
| 2026-05-07 11:33 | 1.41307 | 103.87147 | 3349 ft | 93 kts | 208° |
| 2026-05-07 11:33 | 1.40882 | 103.86644 | 3464 ft | 101 kts | 253° |
| 2026-05-07 11:33 | 1.40873 | 103.85937 | 3619 ft | 103 kts | 273° |
| 2026-05-07 11:34 | 1.40953 | 103.85226 | 3762 ft | 103 kts | 279° |
| 2026-05-07 11:34 | 1.41191 | 103.84586 | 3948 ft | 102 kts | 318° |
| 2026-05-07 11:34 | 1.41787 | 103.84628 | 4120 ft | 96 kts | 63° |
| 2026-05-07 11:34 | 1.41582 | 103.85191 | 4252 ft | 95 kts | 161° |
| 2026-05-07 11:35 | 1.40958 | 103.85034 | 4375 ft | 98 kts | 225° |
| 2026-05-07 11:35 | 1.40587 | 103.84534 | 4670 ft | 87 kts | 232° |
| 2026-05-07 11:35 | 1.40280 | 103.84100 | 4812 ft | 88 kts | 234° |
| 2026-05-07 11:36 | 1.39948 | 103.83580 | 5000 ft | 86 kts | 238° |
| 2026-05-07 11:36 | 1.39756 | 103.83008 | 5121 ft | 93 kts | 267° |
| 2026-05-07 11:36 | 1.39821 | 103.82391 | 5317 ft | 88 kts | 275° |
| 2026-05-07 11:36 | 1.39926 | 103.81786 | 5491 ft | 87 kts | 281° |
| 2026-05-07 11:37 | 1.40067 | 103.81207 | 5627 ft | 89 kts | 283° |
| 2026-05-07 11:37 | 1.40258 | 103.80587 | 5781 ft | 91 kts | 286° |
| 2026-05-07 11:37 | 1.40478 | 103.79990 | 5932 ft | 92 kts | 290° |
| 2026-05-07 11:37 | 1.40743 | 103.79401 | 5956 ft | 97 kts | 294° |
| 2026-05-07 11:38 | 1.41021 | 103.78789 | 5987 ft | 98 kts | 286° |
| 2026-05-07 11:38 | 1.40763 | 103.78256 | 5974 ft | 94 kts | 192° |
| 2026-05-07 11:38 | 1.40279 | 103.78568 | 6040 ft | 95 kts | 97° |
| 2026-05-07 11:38 | 1.40376 | 103.79232 | 6082 ft | 89 kts | 83° |
| 2026-05-07 11:39 | 1.40444 | 103.79757 | 6086 ft | 63 kts | 88° |
| 2026-05-07 11:39 | 1.40404 | 103.80181 | 5861 ft | 79 kts | 105° |
| 2026-05-07 11:39 | 1.40217 | 103.80725 | 5973 ft | 84 kts | 110° |
| 2026-05-07 11:39 | 1.40001 | 103.81336 | 6009 ft | 98 kts | 109° |
| 2026-05-07 11:40 | 1.39910 | 103.81964 | 6131 ft | 90 kts | 64° |
| 2026-05-07 11:40 | 1.40532 | 103.82012 | 5954 ft | 113 kts | 302° |
| 2026-05-07 11:40 | 1.40189 | 103.81539 | 5916 ft | 110 kts | 158° |
| 2026-05-07 11:40 | 1.40277 | 103.82088 | 5930 ft | 111 kts | 8° |
| 2026-05-07 11:41 | 1.40954 | 103.81744 | 5870 ft | 110 kts | 307° |
| 2026-05-07 11:41 | 1.40849 | 103.81128 | 5889 ft | 99 kts | 207° |
| 2026-05-07 11:41 | 1.40220 | 103.81072 | 5919 ft | 74 kts | 177° |
| 2026-05-07 11:41 | 1.39797 | 103.81071 | 5823 ft | 54 kts | 181° |
| 2026-05-07 11:42 | 1.39316 | 103.81026 | 5436 ft | 78 kts | 184° |
| 2026-05-07 11:42 | 1.38774 | 103.81025 | 5232 ft | 70 kts | 172° |